createdAt,value
2018-06-28T00:00:18.760Z,1019.65
2018-06-28T00:00:59.346Z,1019.64
2018-06-28T00:01:39.928Z,1019.64
2018-06-28T00:02:20.468Z,1019.63
2018-06-28T00:03:01.030Z,1019.63
2018-06-28T00:03:41.562Z,1019.66
2018-06-28T00:04:22.114Z,1019.63
2018-06-28T00:05:02.689Z,1019.62
2018-06-28T00:05:43.249Z,1019.65
2018-06-28T00:06:23.825Z,1019.64
2018-06-28T00:07:04.378Z,1019.64
2018-06-28T00:07:44.963Z,1019.65
2018-06-28T00:08:25.521Z,1019.64
2018-06-28T00:09:06.036Z,1019.63
2018-06-28T00:09:46.586Z,1019.65
2018-06-28T00:10:27.115Z,1019.65
2018-06-28T00:11:07.677Z,1019.6
2018-06-28T00:11:48.245Z,1019.63
2018-06-28T00:12:28.789Z,1019.6
2018-06-28T00:13:09.323Z,1019.57
2018-06-28T00:13:49.885Z,1019.58
2018-06-28T00:14:30.449Z,1019.57
2018-06-28T00:15:10.993Z,1019.56
2018-06-28T00:15:51.547Z,1019.58
2018-06-28T00:16:32.115Z,1019.57
2018-06-28T00:17:12.644Z,1019.53
2018-06-28T00:17:53.257Z,1019.56
2018-06-28T00:18:33.755Z,1019.55
2018-06-28T00:19:14.306Z,1019.54
2018-06-28T00:19:54.840Z,1019.55
2018-06-28T00:20:35.391Z,1019.57
2018-06-28T00:21:15.964Z,1019.5
2018-06-28T00:21:56.498Z,1019.51
2018-06-28T00:22:37.045Z,1019.5
2018-06-28T00:23:17.587Z,1019.46
2018-06-28T00:23:58.156Z,1019.51
2018-06-28T00:24:38.714Z,1019.47
2018-06-28T00:25:19.310Z,1019.52
2018-06-28T00:25:59.856Z,1019.48
2018-06-28T00:26:40.415Z,1019.48
2018-06-28T00:27:20.966Z,1019.46
2018-06-28T00:28:01.516Z,1019.44
2018-06-28T00:28:42.089Z,1019.46
2018-06-28T00:29:22.624Z,1019.43
2018-06-28T00:30:03.178Z,1019.46
2018-06-28T00:30:43.711Z,1019.48
2018-06-28T00:31:24.262Z,1019.48
2018-06-28T00:32:04.804Z,1019.46
2018-06-28T00:32:45.375Z,1019.52
2018-06-28T00:33:25.942Z,1019.52
2018-06-28T00:34:06.495Z,1019.52
2018-06-28T00:34:47.055Z,1019.49
2018-06-28T00:35:27.603Z,1019.46
2018-06-28T00:36:08.151Z,1019.54
2018-06-28T00:36:48.728Z,1019.53
2018-06-28T00:37:29.264Z,1019.54
2018-06-28T00:38:09.812Z,1019.5
2018-06-28T00:38:50.395Z,1019.53
2018-06-28T00:39:30.943Z,1019.54
2018-06-28T00:40:11.493Z,1019.55
2018-06-28T00:40:52.049Z,1019.53
2018-06-28T00:41:32.588Z,1019.52
2018-06-28T00:42:13.145Z,1019.54
2018-06-28T00:42:53.679Z,1019.53
2018-06-28T00:43:34.277Z,1019.51
2018-06-28T00:44:14.805Z,1019.54
2018-06-28T00:44:55.342Z,1019.5
2018-06-28T00:45:38.465Z,1019.51
2018-06-28T00:46:19.402Z,1019.54
2018-06-28T00:46:59.951Z,1019.58
2018-06-28T00:47:40.512Z,1019.56
2018-06-28T00:48:21.048Z,1019.53
2018-06-28T00:49:01.589Z,1019.51
2018-06-28T00:49:42.150Z,1019.51
2018-06-28T00:50:22.697Z,1019.5
2018-06-28T00:51:03.229Z,1019.49
2018-06-28T00:51:43.784Z,1019.5
2018-06-28T00:52:24.347Z,1019.52
2018-06-28T00:53:04.893Z,1019.52
2018-06-28T00:53:45.441Z,1019.49
2018-06-28T00:54:25.991Z,1019.54
2018-06-28T00:55:06.545Z,1019.45
2018-06-28T00:55:47.114Z,1019.5
2018-06-28T00:56:27.670Z,1019.48
2018-06-28T00:57:08.220Z,1019.45
2018-06-28T00:57:48.786Z,1019.45
2018-06-28T00:58:29.395Z,1019.48
2018-06-28T00:59:09.943Z,1019.47
2018-06-28T00:59:50.495Z,1019.46
2018-06-28T01:00:31.099Z,1019.43
2018-06-28T01:01:11.625Z,1019.44
2018-06-28T01:01:52.176Z,1019.4
2018-06-28T01:02:32.773Z,1019.4
2018-06-28T01:03:13.346Z,1019.36
2018-06-28T01:03:53.902Z,1019.39
2018-06-28T01:04:34.452Z,1019.37
2018-06-28T01:05:15.029Z,1019.38
2018-06-28T01:05:55.561Z,1019.34
2018-06-28T01:06:36.122Z,1019.35
2018-06-28T01:07:16.670Z,1019.34
2018-06-28T01:07:57.204Z,1019.33
2018-06-28T01:08:37.760Z,1019.33
2018-06-28T01:09:18.361Z,1019.33
2018-06-28T01:09:58.880Z,1019.31
2018-06-28T01:10:39.435Z,1019.29
2018-06-28T01:11:19.980Z,1019.3
2018-06-28T01:12:00.513Z,1019.36
2018-06-28T01:12:41.059Z,1019.28
2018-06-28T01:13:21.607Z,1019.35
2018-06-28T01:14:02.150Z,1019.3
2018-06-28T01:14:42.713Z,1019.25
2018-06-28T01:15:23.270Z,1019.29
2018-06-28T01:16:03.827Z,1019.3
2018-06-28T01:16:44.363Z,1019.32
2018-06-28T01:17:24.910Z,1019.3
2018-06-28T01:18:05.476Z,1019.28
2018-06-28T01:18:46.029Z,1019.27
2018-06-28T01:19:26.567Z,1019.25
2018-06-28T01:20:07.110Z,1019.23
2018-06-28T01:20:47.688Z,1019.27
2018-06-28T01:21:28.231Z,1019.23
2018-06-28T01:22:08.787Z,1019.23
2018-06-28T01:22:49.321Z,1019.2
2018-06-28T01:23:29.859Z,1019.28
2018-06-28T01:24:10.405Z,1019.22
2018-06-28T01:24:50.949Z,1019.25
2018-06-28T01:25:31.470Z,1019.22
2018-06-28T01:26:12.029Z,1019.22
2018-06-28T01:26:52.606Z,1019.25
2018-06-28T01:27:33.154Z,1019.22
2018-06-28T01:28:13.701Z,1019.24
2018-06-28T01:28:54.254Z,1019.24
2018-06-28T01:29:34.788Z,1019.24
2018-06-28T01:30:15.357Z,1019.22
2018-06-28T01:30:55.945Z,1019.2
2018-06-28T01:31:36.490Z,1019.21
2018-06-28T01:32:17.036Z,1019.21
2018-06-28T01:32:57.572Z,1019.22
2018-06-28T01:33:38.112Z,1019.2
2018-06-28T01:34:18.666Z,1019.15
2018-06-28T01:34:59.196Z,1019.16
2018-06-28T01:35:39.749Z,1019.16
2018-06-28T01:36:20.272Z,1019.16
2018-06-28T01:37:00.843Z,1019.14
2018-06-28T01:37:41.413Z,1019.19
2018-06-28T01:38:21.964Z,1019.17
2018-06-28T01:39:02.509Z,1019.16
2018-06-28T01:39:43.077Z,1019.17
2018-06-28T01:40:23.643Z,1019.17
2018-06-28T01:41:04.185Z,1019.18
2018-06-28T01:41:44.746Z,1019.15
2018-06-28T01:42:25.314Z,1019.19
2018-06-28T01:43:05.870Z,1019.17
2018-06-28T01:43:46.390Z,1019.16
2018-06-28T01:44:26.954Z,1019.14
2018-06-28T01:45:07.500Z,1019.11
2018-06-28T01:45:48.040Z,1019.17
2018-06-28T01:46:28.575Z,1019.16
2018-06-28T01:47:09.147Z,1019.15
2018-06-28T01:47:49.719Z,1019.15
2018-06-28T01:48:30.243Z,1019.16
2018-06-28T01:49:10.789Z,1019.17
2018-06-28T01:49:51.374Z,1019.14
2018-06-28T01:50:31.930Z,1019.13
2018-06-28T01:51:12.503Z,1019.17
2018-06-28T01:51:53.074Z,1019.14
2018-06-28T01:52:33.628Z,1019.1
2018-06-28T01:53:14.187Z,1019.13
2018-06-28T01:53:54.733Z,1019.16
2018-06-28T01:54:35.281Z,1019.11
2018-06-28T01:55:15.859Z,1019.1
2018-06-28T01:55:56.411Z,1019.09
2018-06-28T01:56:36.955Z,1019.06
2018-06-28T01:57:17.481Z,1019.07
2018-06-28T01:57:58.035Z,1019.1
2018-06-28T01:58:38.618Z,1019.09
2018-06-28T01:59:19.189Z,1019.04
2018-06-28T01:59:59.739Z,1019.06
2018-06-28T02:00:40.303Z,1019.08
2018-06-28T02:01:20.858Z,1019.12
2018-06-28T02:02:01.400Z,1019.12
2018-06-28T02:02:42.001Z,1019.11
2018-06-28T02:03:22.540Z,1019.06
2018-06-28T02:04:03.095Z,1019.09
2018-06-28T02:04:43.661Z,1019.05
2018-06-28T02:05:24.181Z,1019.04
2018-06-28T02:06:04.745Z,1019.03
2018-06-28T02:06:45.284Z,1019.02
2018-06-28T02:07:25.847Z,1019.04
2018-06-28T02:08:06.408Z,1019.01
2018-06-28T02:08:46.942Z,1019.04
2018-06-28T02:09:27.512Z,1019.04
2018-06-28T02:10:08.074Z,1019.01
2018-06-28T02:10:48.618Z,1019
2018-06-28T02:11:29.164Z,1019
2018-06-28T02:12:09.706Z,1019
2018-06-28T02:12:50.252Z,1018.98
2018-06-28T02:13:30.829Z,1019
2018-06-28T02:14:11.368Z,1018.96
2018-06-28T02:14:51.919Z,1019
2018-06-28T02:15:32.471Z,1018.99
2018-06-28T02:16:13.015Z,1018.95
2018-06-28T02:16:53.569Z,1018.91
2018-06-28T02:17:34.117Z,1018.94
2018-06-28T02:18:14.644Z,1018.89
2018-06-28T02:18:55.201Z,1018.93
2018-06-28T02:19:35.758Z,1018.91
2018-06-28T02:20:16.284Z,1018.91
2018-06-28T02:20:56.826Z,1018.91
2018-06-28T02:21:37.378Z,1018.92
2018-06-28T02:22:17.953Z,1018.94
2018-06-28T02:22:58.517Z,1018.91
2018-06-28T02:23:39.072Z,1018.92
2018-06-28T02:24:19.648Z,1018.87
2018-06-28T02:25:00.242Z,1018.85
2018-06-28T02:25:40.804Z,1018.86
2018-06-28T02:26:21.385Z,1018.85
2018-06-28T02:27:01.940Z,1018.8
2018-06-28T02:27:42.491Z,1018.84
2018-06-28T02:28:23.049Z,1018.83
2018-06-28T02:29:03.627Z,1018.81
2018-06-28T02:29:44.203Z,1018.82
2018-06-28T02:30:24.758Z,1018.83
2018-06-28T02:31:05.297Z,1018.85
2018-06-28T02:31:45.866Z,1018.83
2018-06-28T02:32:26.426Z,1018.85
2018-06-28T02:33:06.982Z,1018.84
2018-06-28T02:33:47.518Z,1018.85
2018-06-28T02:34:28.089Z,1018.85
2018-06-28T02:35:08.674Z,1018.9
2018-06-28T02:35:49.277Z,1018.84
2018-06-28T02:36:29.840Z,1018.82
2018-06-28T02:37:10.397Z,1018.83
2018-06-28T02:37:50.948Z,1018.79
2018-06-28T02:38:31.520Z,1018.81
2018-06-28T02:39:12.086Z,1018.8
2018-06-28T02:39:52.649Z,1018.8
2018-06-28T02:40:33.231Z,1018.77
2018-06-28T02:41:13.788Z,1018.81
2018-06-28T02:41:54.348Z,1018.8
2018-06-28T02:42:34.903Z,1018.77
2018-06-28T02:43:15.463Z,1018.78
2018-06-28T02:43:56.039Z,1018.76
2018-06-28T02:44:36.605Z,1018.75
2018-06-28T02:45:17.175Z,1018.74
2018-06-28T02:45:57.745Z,1018.73
2018-06-28T02:46:38.320Z,1018.73
2018-06-28T02:47:18.872Z,1018.72
2018-06-28T02:47:59.435Z,1018.7
2018-06-28T02:48:39.992Z,1018.68
2018-06-28T02:49:20.615Z,1018.67
2018-06-28T02:50:01.162Z,1018.7
2018-06-28T02:50:41.714Z,1018.67
2018-06-28T02:51:22.274Z,1018.72
2018-06-28T02:52:02.841Z,1018.69
2018-06-28T02:52:43.399Z,1018.71
2018-06-28T02:53:23.950Z,1018.68
2018-06-28T02:54:04.534Z,1018.7
2018-06-28T02:54:45.099Z,1018.68
2018-06-28T02:55:25.663Z,1018.69
2018-06-28T02:56:06.223Z,1018.67
2018-06-28T02:56:46.776Z,1018.69
2018-06-28T02:57:27.322Z,1018.65
2018-06-28T02:58:07.905Z,1018.64
2018-06-28T02:58:48.455Z,1018.64
2018-06-28T02:59:29.021Z,1018.69
2018-06-28T03:00:09.583Z,1018.69
2018-06-28T03:00:50.134Z,1018.66
2018-06-28T03:01:30.706Z,1018.63
2018-06-28T03:02:11.283Z,1018.65
2018-06-28T03:02:51.833Z,1018.68
2018-06-28T03:03:32.383Z,1018.64
2018-06-28T03:04:12.922Z,1018.66
2018-06-28T03:04:53.488Z,1018.64
2018-06-28T03:05:34.035Z,1018.65
2018-06-28T03:06:14.589Z,1018.6
2018-06-28T03:06:55.128Z,1018.63
2018-06-28T03:07:35.685Z,1018.63
2018-06-28T03:08:16.232Z,1018.59
2018-06-28T03:08:56.789Z,1018.6
2018-06-28T03:09:37.340Z,1018.63
2018-06-28T03:10:17.920Z,1018.61
2018-06-28T03:10:58.494Z,1018.6
2018-06-28T03:11:39.055Z,1018.59
2018-06-28T03:12:19.614Z,1018.62
2018-06-28T03:13:00.171Z,1018.61
2018-06-28T03:13:40.719Z,1018.61
2018-06-28T03:14:21.283Z,1018.6
2018-06-28T03:15:01.842Z,1018.59
2018-06-28T03:15:42.391Z,1018.54
2018-06-28T03:16:22.939Z,1018.55
2018-06-28T03:17:03.485Z,1018.58
2018-06-28T03:17:44.045Z,1018.62
2018-06-28T03:18:24.955Z,1018.6
2018-06-28T03:19:05.512Z,1018.6
2018-06-28T03:19:46.081Z,1018.62
2018-06-28T03:20:26.641Z,1018.58
2018-06-28T03:21:07.196Z,1018.62
2018-06-28T03:21:47.808Z,1018.62
2018-06-28T03:22:28.313Z,1018.61
2018-06-28T03:23:08.858Z,1018.62
2018-06-28T03:23:49.443Z,1018.57
2018-06-28T03:24:30.013Z,1018.58
2018-06-28T03:25:10.705Z,1018.59
2018-06-28T03:25:51.267Z,1018.59
2018-06-28T03:26:31.828Z,1018.58
2018-06-28T03:27:12.400Z,1018.59
2018-06-28T03:27:53.004Z,1018.61
2018-06-28T03:28:33.544Z,1018.61
2018-06-28T03:29:14.095Z,1018.65
2018-06-28T03:29:54.661Z,1018.64
2018-06-28T03:30:35.219Z,1018.64
2018-06-28T03:31:15.781Z,1018.66
2018-06-28T03:31:56.323Z,1018.62
2018-06-28T03:32:36.889Z,1018.63
2018-06-28T03:33:17.435Z,1018.61
2018-06-28T03:33:58.005Z,1018.63
2018-06-28T03:34:39.037Z,1018.61
2018-06-28T03:35:19.547Z,1018.63
2018-06-28T03:36:00.125Z,1018.67
2018-06-28T03:36:40.659Z,1018.64
2018-06-28T03:37:21.247Z,1018.66
2018-06-28T03:38:01.909Z,1018.68
2018-06-28T03:38:42.372Z,1018.68
2018-06-28T03:39:22.925Z,1018.66
2018-06-28T03:40:03.491Z,1018.69
2018-06-28T03:40:44.051Z,1018.67
2018-06-28T03:41:24.614Z,1018.68
2018-06-28T03:42:05.188Z,1018.66
2018-06-28T03:42:45.750Z,1018.68
2018-06-28T03:43:26.302Z,1018.68
2018-06-28T03:44:06.859Z,1018.7
2018-06-28T03:44:47.447Z,1018.7
2018-06-28T03:45:27.992Z,1018.66
2018-06-28T03:46:08.586Z,1018.66
2018-06-28T03:46:49.145Z,1018.69
2018-06-28T03:47:29.727Z,1018.67
2018-06-28T03:48:10.314Z,1018.64
2018-06-28T03:48:50.914Z,1018.62
2018-06-28T03:49:31.445Z,1018.65
2018-06-28T03:50:12.021Z,1018.64
2018-06-28T03:50:52.591Z,1018.62
2018-06-28T03:51:33.158Z,1018.62
2018-06-28T03:52:13.734Z,1018.62
2018-06-28T03:52:54.297Z,1018.63
2018-06-28T03:53:34.860Z,1018.63
2018-06-28T03:54:15.436Z,1018.63
2018-06-28T03:54:55.999Z,1018.63
2018-06-28T03:55:36.562Z,1018.65
2018-06-28T03:56:17.124Z,1018.64
2018-06-28T03:56:57.679Z,1018.67
2018-06-28T03:57:38.255Z,1018.65
2018-06-28T03:58:18.833Z,1018.65
2018-06-28T03:58:59.417Z,1018.64
2018-06-28T03:59:40.031Z,1018.65
2018-06-28T04:00:20.579Z,1018.61
2018-06-28T04:01:01.144Z,1018.62
2018-06-28T04:01:41.719Z,1018.6
2018-06-28T04:02:22.293Z,1018.62
2018-06-28T04:03:02.864Z,1018.62
2018-06-28T04:03:43.422Z,1018.66
2018-06-28T04:04:23.972Z,1018.65
2018-06-28T04:05:04.557Z,1018.62
2018-06-28T04:05:45.133Z,1018.64
2018-06-28T04:06:25.717Z,1018.66
2018-06-28T04:07:06.258Z,1018.63
2018-06-28T04:07:46.843Z,1018.64
2018-06-28T04:08:27.390Z,1018.63
2018-06-28T04:09:07.932Z,1018.67
2018-06-28T04:09:48.480Z,1018.64
2018-06-28T04:10:29.052Z,1018.69
2018-06-28T04:11:09.609Z,1018.67
2018-06-28T04:11:50.218Z,1018.66
2018-06-28T04:12:30.755Z,1018.66
2018-06-28T04:13:11.307Z,1018.71
2018-06-28T04:13:51.853Z,1018.67
2018-06-28T04:14:32.423Z,1018.68
2018-06-28T04:15:12.987Z,1018.62
2018-06-28T04:15:53.567Z,1018.64
2018-06-28T04:16:34.153Z,1018.62
2018-06-28T04:17:14.686Z,1018.63
2018-06-28T04:17:55.233Z,1018.64
2018-06-28T04:18:35.800Z,1018.67
2018-06-28T04:19:16.373Z,1018.67
2018-06-28T04:19:56.917Z,1018.65
2018-06-28T04:20:37.547Z,1018.63
2018-06-28T04:21:18.097Z,1018.65
2018-06-28T04:21:58.657Z,1018.67
2018-06-28T04:22:39.218Z,1018.67
2018-06-28T04:23:19.781Z,1018.68
2018-06-28T04:24:00.344Z,1018.71
2018-06-28T04:24:40.889Z,1018.68
2018-06-28T04:25:21.445Z,1018.68
2018-06-28T04:26:02.006Z,1018.7
2018-06-28T04:26:42.555Z,1018.68
2018-06-28T04:27:23.153Z,1018.65
2018-06-28T04:28:03.686Z,1018.69
2018-06-28T04:28:44.252Z,1018.63
2018-06-28T04:29:24.811Z,1018.65
2018-06-28T04:30:05.364Z,1018.61
2018-06-28T04:30:45.928Z,1018.64
2018-06-28T04:31:26.496Z,1018.6
2018-06-28T04:32:07.076Z,1018.64
2018-06-28T04:32:47.703Z,1018.64
2018-06-28T04:33:28.261Z,1018.64
2018-06-28T04:34:08.837Z,1018.69
2018-06-28T04:34:49.397Z,1018.65
2018-06-28T04:35:29.960Z,1018.64
2018-06-28T04:36:10.536Z,1018.61
2018-06-28T04:36:51.110Z,1018.65
2018-06-28T04:37:31.660Z,1018.63
2018-06-28T04:38:12.239Z,1018.58
2018-06-28T04:38:52.833Z,1018.6
2018-06-28T04:39:33.391Z,1018.61
2018-06-28T04:40:13.946Z,1018.65
2018-06-28T04:40:54.503Z,1018.59
2018-06-28T04:41:35.042Z,1018.64
2018-06-28T04:42:15.590Z,1018.62
2018-06-28T04:42:56.158Z,1018.6
2018-06-28T04:43:36.720Z,1018.63
2018-06-28T04:44:17.291Z,1018.63
2018-06-28T04:44:57.864Z,1018.65
2018-06-28T04:45:38.440Z,1018.61
2018-06-28T04:46:19.084Z,1018.61
2018-06-28T04:46:59.667Z,1018.59
2018-06-28T04:47:40.229Z,1018.61
2018-06-28T04:48:20.778Z,1018.57
2018-06-28T04:49:01.363Z,1018.6
2018-06-28T04:49:41.919Z,1018.57
2018-06-28T04:50:22.487Z,1018.53
2018-06-28T04:51:03.071Z,1018.56
2018-06-28T04:51:43.662Z,1018.55
2018-06-28T04:52:24.222Z,1018.57
2018-06-28T04:53:04.768Z,1018.56
2018-06-28T04:53:45.326Z,1018.56
2018-06-28T04:54:25.875Z,1018.54
2018-06-28T04:55:06.425Z,1018.58
2018-06-28T04:55:47.016Z,1018.51
2018-06-28T04:56:27.561Z,1018.5
2018-06-28T04:57:08.129Z,1018.52
2018-06-28T04:57:48.709Z,1018.51
2018-06-28T04:58:29.260Z,1018.53
2018-06-28T04:59:09.821Z,1018.49
2018-06-28T04:59:50.385Z,1018.48
2018-06-28T05:00:30.943Z,1018.54
2018-06-28T05:01:11.527Z,1018.53
2018-06-28T05:01:52.082Z,1018.53
2018-06-28T05:02:32.639Z,1018.57
2018-06-28T05:03:13.192Z,1018.51
2018-06-28T05:03:53.739Z,1018.52
2018-06-28T05:04:34.317Z,1018.59
2018-06-28T05:05:14.884Z,1018.59
2018-06-28T05:05:55.453Z,1018.53
2018-06-28T05:06:36.013Z,1018.53
2018-06-28T05:07:16.584Z,1018.5
2018-06-28T05:07:57.120Z,1018.54
2018-06-28T05:08:37.686Z,1018.53
2018-06-28T05:09:18.257Z,1018.55
2018-06-28T05:09:58.800Z,1018.61
2018-06-28T05:10:39.362Z,1018.56
2018-06-28T05:11:19.904Z,1018.6
2018-06-28T05:12:00.549Z,1018.56
2018-06-28T05:12:41.178Z,1018.59
2018-06-28T05:13:21.698Z,1018.49
2018-06-28T05:14:02.317Z,1018.53
2018-06-28T05:14:42.869Z,1018.52
2018-06-28T05:15:23.434Z,1018.53
2018-06-28T05:16:03.988Z,1018.57
2018-06-28T05:16:44.570Z,1018.46
2018-06-28T05:17:25.128Z,1018.41
2018-06-28T05:18:05.711Z,1018.37
2018-06-28T05:18:46.259Z,1018.39
2018-06-28T05:19:26.809Z,1018.4
2018-06-28T05:20:07.379Z,1018.45
2018-06-28T05:20:47.911Z,1018.55
2018-06-28T05:21:28.667Z,1018.58
2018-06-28T05:22:09.066Z,1018.5
2018-06-28T05:22:49.621Z,1018.48
2018-06-28T05:23:30.177Z,1018.5
2018-06-28T05:24:10.728Z,1018.49
2018-06-28T05:24:51.300Z,1018.53
2018-06-28T05:25:31.854Z,1018.5
2018-06-28T05:26:12.423Z,1018.53
2018-06-28T05:26:52.996Z,1018.59
2018-06-28T05:27:33.584Z,1018.57
2018-06-28T05:28:14.159Z,1018.54
2018-06-28T05:28:54.720Z,1018.53
2018-06-28T05:29:35.279Z,1018.59
2018-06-28T05:30:15.857Z,1018.61
2018-06-28T05:30:56.409Z,1018.61
2018-06-28T05:31:36.979Z,1018.63
2018-06-28T05:32:17.546Z,1018.66
2018-06-28T05:32:58.107Z,1018.67
2018-06-28T05:33:38.663Z,1018.66
2018-06-28T05:34:19.227Z,1018.69
2018-06-28T05:34:59.829Z,1018.7
2018-06-28T05:35:40.389Z,1018.73
2018-06-28T05:36:20.923Z,1018.7
2018-06-28T05:37:01.488Z,1018.68
2018-06-28T05:37:42.068Z,1018.66
2018-06-28T05:38:22.621Z,1018.65
2018-06-28T05:39:03.169Z,1018.78
2018-06-28T05:39:43.743Z,1018.79
2018-06-28T05:40:24.330Z,1018.84
2018-06-28T05:41:04.895Z,1018.89
2018-06-28T05:41:46.485Z,1019.03
2018-06-28T05:42:28.131Z,1019.06
2018-06-28T05:43:08.965Z,1019.11
2018-06-28T05:43:49.634Z,1019.16
2018-06-28T05:44:30.298Z,1019.25
2018-06-28T05:45:11.367Z,1019.37
2018-06-28T05:45:52.387Z,1019.47
2018-06-28T05:46:33.464Z,1019.5
2018-06-28T05:47:14.393Z,1019.59
2018-06-28T05:47:55.062Z,1019.62
2018-06-28T05:48:35.596Z,1019.68
2018-06-28T05:49:16.389Z,1019.71
2018-06-28T05:49:57.185Z,1019.82
2018-06-28T05:50:37.792Z,1019.8
2018-06-28T05:51:18.519Z,1019.84
2018-06-28T05:51:59.344Z,1019.99
2018-06-28T05:52:39.914Z,1019.86
2018-06-28T05:53:20.474Z,1019.91
2018-06-28T05:54:01.120Z,1020.06
2018-06-28T05:54:41.661Z,1019.8
2018-06-28T05:55:22.406Z,1019.45
2018-06-28T05:56:02.769Z,1019.53
2018-06-28T05:56:43.328Z,1019.79
2018-06-28T05:57:23.893Z,1019.87
2018-06-28T05:58:04.455Z,1019.93
2018-06-28T05:58:45.020Z,1019.78
2018-06-28T05:59:25.573Z,1019.76
2018-06-28T06:00:06.139Z,1019.63
2018-06-28T06:00:46.698Z,1019.65
2018-06-28T06:01:27.276Z,1019.52
2018-06-28T06:02:07.777Z,1019.68
2018-06-28T06:02:48.341Z,1019.56
2018-06-28T06:03:28.903Z,1019.56
2018-06-28T06:04:09.452Z,1019.66
2018-06-28T06:04:49.980Z,1019.71
2018-06-28T06:05:30.539Z,1019.53
2018-06-28T06:06:11.102Z,1019.39
2018-06-28T06:06:51.653Z,1019.32
2018-06-28T06:07:32.254Z,1019.24
2018-06-28T06:08:12.798Z,1019.16
2018-06-28T06:08:53.501Z,1019.11
2018-06-28T06:09:34.026Z,1019.26
2018-06-28T06:10:14.578Z,1019.19
2018-06-28T06:10:55.197Z,1019.3
2018-06-28T06:11:35.711Z,1019.42
2018-06-28T06:12:16.587Z,1019.52
2018-06-28T06:12:57.204Z,1019.46
2018-06-28T06:13:37.789Z,1019.45
2018-06-28T06:14:18.344Z,1019.38
2018-06-28T06:14:58.948Z,1019.39
2018-06-28T06:15:39.474Z,1019.42
2018-06-28T06:16:20.045Z,1019.46
2018-06-28T06:17:00.638Z,1019.46
2018-06-28T06:17:41.235Z,1019.53
2018-06-28T06:18:21.828Z,1019.45
2018-06-28T06:19:02.616Z,1019.39
2018-06-28T06:19:43.287Z,1019.49
2018-06-28T06:20:24.054Z,1019.55
2018-06-28T06:21:04.569Z,1019.54
2018-06-28T06:21:45.139Z,1019.52
2018-06-28T06:22:25.870Z,1019.46
2018-06-28T06:23:06.440Z,1019.59
2018-06-28T06:23:46.999Z,1019.65
2018-06-28T06:24:27.556Z,1019.7
2018-06-28T06:25:08.152Z,1019.74
2018-06-28T06:25:48.734Z,1019.71
2018-06-28T06:26:29.303Z,1019.7
2018-06-28T06:27:09.852Z,1019.65
2018-06-28T06:27:50.537Z,1019.66
2018-06-28T06:28:30.966Z,1019.6
2018-06-28T06:29:11.637Z,1019.7
2018-06-28T06:29:52.223Z,1019.89
2018-06-28T06:30:32.789Z,1019.85
2018-06-28T06:31:13.448Z,1019.65
2018-06-28T06:31:54.020Z,1019.62
2018-06-28T06:32:34.596Z,1019.64
2018-06-28T06:33:15.177Z,1019.7
2018-06-28T06:33:55.709Z,1019.78
2018-06-28T06:34:36.271Z,1019.7
2018-06-28T06:35:16.852Z,1019.52
2018-06-28T06:35:57.404Z,1019.37
2018-06-28T06:36:37.998Z,1019.44
2018-06-28T06:37:18.553Z,1019.58
2018-06-28T06:37:59.119Z,1019.71
2018-06-28T06:38:39.672Z,1019.8
2018-06-28T06:39:20.256Z,1019.76
2018-06-28T06:40:00.825Z,1019.66
2018-06-28T06:40:41.354Z,1019.66
2018-06-28T06:41:21.941Z,1019.64
2018-06-28T06:42:02.536Z,1019.57
2018-06-28T06:42:43.072Z,1019.46
2018-06-28T06:43:23.624Z,1019.31
2018-06-28T06:44:04.203Z,1019.25
2018-06-28T06:44:44.868Z,1019.09
2018-06-28T06:45:25.472Z,1018.95
2018-06-28T06:46:06.069Z,1018.81
2018-06-28T06:46:46.627Z,1018.73
2018-06-28T06:47:27.214Z,1018.71
2018-06-28T06:48:07.833Z,1018.69
2018-06-28T06:48:48.445Z,1018.69
2018-06-28T06:49:28.975Z,1018.66
2018-06-28T06:50:09.785Z,1018.61
2018-06-28T06:50:50.197Z,1018.59
2018-06-28T06:51:30.809Z,1018.62
2018-06-28T06:52:11.414Z,1018.61
2018-06-28T06:52:51.968Z,1018.58
2018-06-28T06:53:32.508Z,1018.63
2018-06-28T06:54:13.084Z,1018.62
2018-06-28T06:54:53.652Z,1018.75
2018-06-28T06:55:34.209Z,1018.9
2018-06-28T06:56:14.789Z,1019.04
2018-06-28T06:56:55.354Z,1019.15
2018-06-28T06:57:36.012Z,1019.13
2018-06-28T06:58:16.534Z,1018.97
2018-06-28T06:58:57.128Z,1018.76
2018-06-28T06:59:37.710Z,1018.6
2018-06-28T07:00:18.372Z,1018.48
2018-06-28T07:00:59.011Z,1018.45
2018-06-28T07:01:39.609Z,1018.4
2018-06-28T07:02:20.161Z,1018.38
2018-06-28T07:03:00.712Z,1018.34
2018-06-28T07:03:41.302Z,1018.34
2018-06-28T07:04:21.851Z,1018.31
2018-06-28T07:05:02.385Z,1018.28
2018-06-28T07:05:42.945Z,1018.24
2018-06-28T07:06:23.488Z,1018.26
2018-06-28T07:07:04.092Z,1018.3
2018-06-28T07:07:44.653Z,1018.26
2018-06-28T07:08:25.205Z,1018.26
2018-06-28T07:09:05.786Z,1018.2
2018-06-28T07:09:46.337Z,1018.2
2018-06-28T07:10:27.140Z,1018.16
2018-06-28T07:11:07.492Z,1018.16
2018-06-28T07:11:48.050Z,1018.23
2018-06-28T07:12:28.641Z,1018.15
2018-06-28T07:13:09.193Z,1018.22
2018-06-28T07:13:49.752Z,1018.23
2018-06-28T07:14:30.282Z,1018.33
2018-06-28T07:15:10.920Z,1018.35
2018-06-28T07:15:51.530Z,1018.37
2018-06-28T07:16:32.073Z,1018.33
2018-06-28T07:17:12.632Z,1018.22
2018-06-28T07:17:53.225Z,1018.2
2018-06-28T07:18:33.793Z,1018.12
2018-06-28T07:19:14.387Z,1018.08
2018-06-28T07:19:54.946Z,1018.08
2018-06-28T07:20:35.489Z,1018.13
2018-06-28T07:21:16.439Z,1018.08
2018-06-28T07:21:56.996Z,1018.16
2018-06-28T07:22:37.605Z,1018.13
2018-06-28T07:23:18.167Z,1018.24
2018-06-28T07:23:58.729Z,1018.38
2018-06-28T07:24:39.317Z,1018.65
2018-06-28T07:25:19.876Z,1018.94
2018-06-28T07:26:00.443Z,1019.08
2018-06-28T07:26:41.023Z,1019.13
2018-06-28T07:27:21.600Z,1019.11
2018-06-28T07:28:02.151Z,1019.21
2018-06-28T07:28:42.840Z,1019.07
2018-06-28T07:29:23.320Z,1018.73
2018-06-28T07:30:03.876Z,1018.31
2018-06-28T07:30:44.426Z,1018.15
2018-06-28T07:31:24.970Z,1018.04
2018-06-28T07:32:05.510Z,1017.97
2018-06-28T07:32:46.091Z,1017.95
2018-06-28T07:33:26.678Z,1017.94
2018-06-28T07:34:07.336Z,1017.93
2018-06-28T07:34:47.773Z,1017.91
2018-06-28T07:35:28.332Z,1017.91
2018-06-28T07:36:08.894Z,1017.9
2018-06-28T07:36:49.488Z,1017.91
2018-06-28T07:37:30.161Z,1017.91
2018-06-28T07:38:10.689Z,1017.93
2018-06-28T07:38:51.280Z,1017.93
2018-06-28T07:39:31.842Z,1017.93
2018-06-28T07:40:12.407Z,1017.95
2018-06-28T07:40:52.984Z,1017.98
2018-06-28T07:41:33.558Z,1017.98
2018-06-28T07:42:14.113Z,1017.89
2018-06-28T07:42:54.667Z,1017.84
2018-06-28T07:43:35.228Z,1017.83
2018-06-28T07:44:15.781Z,1017.89
2018-06-28T07:44:56.336Z,1017.9
2018-06-28T07:45:36.903Z,1017.81
2018-06-28T07:46:17.494Z,1017.78
2018-06-28T07:46:58.062Z,1017.75
2018-06-28T07:47:38.634Z,1017.78
2018-06-28T07:48:19.188Z,1017.76
2018-06-28T07:48:59.757Z,1017.79
2018-06-28T07:49:40.309Z,1017.81
2018-06-28T07:50:20.867Z,1017.77
2018-06-28T07:51:01.422Z,1017.82
2018-06-28T07:51:42.012Z,1017.76
2018-06-28T07:52:22.588Z,1017.76
2018-06-28T07:53:03.161Z,1017.74
2018-06-28T07:53:43.707Z,1017.77
2018-06-28T07:54:24.305Z,1017.73
2018-06-28T07:55:04.876Z,1017.75
2018-06-28T07:55:45.437Z,1017.78
2018-06-28T07:56:26.016Z,1017.73
2018-06-28T07:57:06.593Z,1017.73
2018-06-28T07:57:47.189Z,1017.73
2018-06-28T07:58:27.742Z,1017.69
2018-06-28T07:59:08.317Z,1017.68
2018-06-28T07:59:48.884Z,1017.72
2018-06-28T08:00:29.468Z,1017.61
2018-06-28T08:01:10.025Z,1017.61
2018-06-28T08:01:50.618Z,1017.59
2018-06-28T08:02:31.135Z,1017.64
2018-06-28T08:03:11.715Z,1017.62
2018-06-28T08:03:52.257Z,1017.62
2018-06-28T08:04:32.827Z,1017.61
2018-06-28T08:05:13.386Z,1017.63
2018-06-28T08:05:53.928Z,1017.6
2018-06-28T08:06:34.466Z,1017.57
2018-06-28T08:07:15.016Z,1017.59
2018-06-28T08:07:55.554Z,1017.56
2018-06-28T08:08:36.098Z,1017.55
2018-06-28T08:09:16.686Z,1017.49
2018-06-28T08:09:57.265Z,1017.47
2018-06-28T08:10:37.849Z,1017.52
2018-06-28T08:11:18.420Z,1017.51
2018-06-28T08:11:58.983Z,1017.54
2018-06-28T08:12:39.580Z,1017.57